createdAt,value
2023-02-11T00:01:12.621Z,18.17
2023-02-11T00:03:40.018Z,16.33
2023-02-11T00:06:09.700Z,17.83
2023-02-11T00:08:37.331Z,18.75
2023-02-11T00:11:05.095Z,19.52
2023-02-11T00:13:32.182Z,17.92
2023-02-11T00:15:59.553Z,18.83
2023-02-11T00:18:26.740Z,19.67
2023-02-11T00:20:53.900Z,22.08
2023-02-11T00:23:21.047Z,22.70
2023-02-11T00:25:48.340Z,23.65
2023-02-11T00:28:15.669Z,21.50
2023-02-11T00:30:43.135Z,21.02
2023-02-11T00:33:10.419Z,20.02
2023-02-11T00:35:38.889Z,20.80
2023-02-11T00:38:08.467Z,20.52
2023-02-11T00:40:35.603Z,19.33
2023-02-11T00:43:04.346Z,19.40
2023-02-11T00:45:31.496Z,20.02
2023-02-11T00:47:58.765Z,19.63
2023-02-11T00:50:28.605Z,18.60
2023-02-11T00:52:56.272Z,20.60
2023-02-11T00:55:23.605Z,18.83
2023-02-11T00:57:50.903Z,16.13
2023-02-11T01:00:18.306Z,15.77
2023-02-11T01:02:45.756Z,11.75
2023-02-11T01:05:13.028Z,16.77
2023-02-11T01:07:40.366Z,12.70
2023-02-11T01:10:07.636Z,11.13
2023-02-11T01:12:36.491Z,9.93
2023-02-11T01:15:05.079Z,11.52
2023-02-11T01:17:34.017Z,13.35
2023-02-11T01:20:05.212Z,13.10
2023-02-11T01:22:32.542Z,16.83
2023-02-11T01:24:59.727Z,12.60
2023-02-11T01:27:26.922Z,13.23
2023-02-11T01:29:54.030Z,14.20
2023-02-11T01:32:21.309Z,13.80
2023-02-11T01:34:48.513Z,12.18
2023-02-11T01:37:15.756Z,10.98
2023-02-11T01:39:42.876Z,11.20
2023-02-11T01:42:16.566Z,9.57
2023-02-11T01:44:43.800Z,11.95
2023-02-11T01:47:11.414Z,10.60
2023-02-11T01:49:47.983Z,10.32
2023-02-11T01:52:20.445Z,7.78
2023-02-11T01:55:11.986Z,9.18
2023-02-11T01:57:42.820Z,12.30
2023-02-11T02:00:31.121Z,16.67
2023-02-11T02:02:58.385Z,15.77
2023-02-11T02:05:25.686Z,14.32
2023-02-11T02:07:59.783Z,17.58
2023-02-11T02:10:29.091Z,15.88
2023-02-11T02:12:56.612Z,16.85
2023-02-11T02:15:35.129Z,16.10
2023-02-11T02:18:17.968Z,14.55
2023-02-11T02:21:18.139Z,16.17
2023-02-11T02:24:09.491Z,15.80
2023-02-11T02:27:07.106Z,17.00
2023-02-11T02:29:34.408Z,16.88
2023-02-11T02:32:32.377Z,17.55
2023-02-11T02:35:16.385Z,17.75
2023-02-11T02:37:56.102Z,15.07
2023-02-11T02:40:32.904Z,16.02
2023-02-11T02:43:02.533Z,15.38
2023-02-11T02:45:29.659Z,16.95
2023-02-11T02:47:57.191Z,13.38
2023-02-11T02:50:30.507Z,15.25
2023-02-11T02:53:09.290Z,16.23
2023-02-11T02:55:42.120Z,15.50
2023-02-11T02:58:34.348Z,15.75
2023-02-11T03:01:21.584Z,13.13
2023-02-11T03:03:54.026Z,14.82
2023-02-11T03:06:31.339Z,14.63
2023-02-11T03:09:12.233Z,14.73
2023-02-11T03:11:40.732Z,13.75
2023-02-11T03:14:11.848Z,14.02
2023-02-11T03:16:40.014Z,13.77
2023-02-11T03:19:23.177Z,14.23
2023-02-11T03:21:53.851Z,13.13
2023-02-11T03:24:29.022Z,14.18
2023-02-11T03:27:05.618Z,12.77
2023-02-11T03:29:54.942Z,9.73
2023-02-11T03:32:29.810Z,13.50
2023-02-11T03:35:12.163Z,14.23
2023-02-11T03:38:05.918Z,12.75
2023-02-11T03:40:37.056Z,13.60
2023-02-11T03:43:20.214Z,13.20
2023-02-11T03:45:51.557Z,11.48
2023-02-11T03:48:32.500Z,11.98
2023-02-11T03:51:05.772Z,12.07
2023-02-11T03:53:33.549Z,12.40
2023-02-11T03:56:05.558Z,13.40
2023-02-11T04:00:59.862Z,9.00
2023-02-11T04:03:27.073Z,10.13
2023-02-11T04:05:54.589Z,7.60
2023-02-11T04:08:21.717Z,9.25
2023-02-11T04:10:48.865Z,10.80
2023-02-11T04:13:16.069Z,9.48
2023-02-11T04:15:43.186Z,9.85
2023-02-11T04:18:10.349Z,7.15
2023-02-11T04:20:37.502Z,6.20
2023-02-11T04:23:05.360Z,7.68
2023-02-11T04:25:32.452Z,7.38
2023-02-11T04:27:59.724Z,6.55
2023-02-11T04:30:26.946Z,7.57
2023-02-11T04:32:54.944Z,8.48
2023-02-11T04:35:22.088Z,9.77
2023-02-11T04:37:49.250Z,10.50
2023-02-11T04:40:16.615Z,8.35
2023-02-11T04:42:43.752Z,6.30
2023-02-11T04:45:10.865Z,9.93
2023-02-11T04:47:38.298Z,10.05
2023-02-11T04:50:05.871Z,7.32
2023-02-11T04:52:33.059Z,7.85
2023-02-11T04:55:00.213Z,8.10
2023-02-11T04:57:27.432Z,8.75
2023-02-11T04:59:54.568Z,6.40
2023-02-11T05:02:21.851Z,6.40
2023-02-11T05:04:48.990Z,7.05
2023-02-11T05:07:16.133Z,8.43
2023-02-11T05:09:43.293Z,9.70
2023-02-11T05:12:10.531Z,10.70
2023-02-11T05:14:37.809Z,9.82
2023-02-11T05:17:04.908Z,8.98
2023-02-11T05:19:32.345Z,10.05
2023-02-11T05:22:03.008Z,10.77
2023-02-11T05:24:34.423Z,10.80
2023-02-11T05:27:02.264Z,11.98
2023-02-11T05:29:29.858Z,11.07
2023-02-11T05:31:58.610Z,11.20
2023-02-11T05:34:25.743Z,11.73
2023-02-11T05:36:52.937Z,11.35
2023-02-11T05:39:20.152Z,11.00
2023-02-11T05:41:47.319Z,11.48
2023-02-11T05:44:14.541Z,11.77
2023-02-11T05:46:41.709Z,10.52
2023-02-11T05:49:09.018Z,10.90
2023-02-11T05:51:36.153Z,10.40
2023-02-11T05:54:03.997Z,9.82
2023-02-11T05:56:31.228Z,9.60
2023-02-11T05:59:00.199Z,10.88
2023-02-11T06:01:27.453Z,9.63
2023-02-11T06:03:55.320Z,10.23
2023-02-11T06:06:22.577Z,9.40
2023-02-11T06:08:49.769Z,8.40
2023-02-11T06:11:17.759Z,8.65
2023-02-11T06:13:45.030Z,8.98
2023-02-11T06:16:12.289Z,7.00
2023-02-11T06:18:39.582Z,8.52
2023-02-11T06:21:08.857Z,6.47
2023-02-11T06:23:36.505Z,6.32
2023-02-11T06:26:09.789Z,5.90
2023-02-11T06:28:40.003Z,7.00
2023-02-11T06:31:10.061Z,8.48
2023-02-11T06:33:37.919Z,8.68
2023-02-11T06:36:12.440Z,8.20
2023-02-11T06:38:39.612Z,7.95
2023-02-11T06:41:06.731Z,7.75
2023-02-11T06:43:33.940Z,7.55
2023-02-11T06:46:01.110Z,7.15
2023-02-11T06:48:28.568Z,7.60
2023-02-11T06:50:55.613Z,7.43
2023-02-11T06:53:22.850Z,7.95
2023-02-11T06:55:50.464Z,7.25
2023-02-11T06:58:17.905Z,8.13
2023-02-11T07:00:44.970Z,7.78
2023-02-11T07:03:12.213Z,7.82
2023-02-11T07:05:43.561Z,7.07
2023-02-11T07:08:10.928Z,7.87
2023-02-11T07:10:38.031Z,7.55
2023-02-11T07:13:05.238Z,7.35
2023-02-11T07:15:32.445Z,8.70
2023-02-11T07:17:59.960Z,7.78
2023-02-11T07:20:27.291Z,7.88
2023-02-11T07:22:54.528Z,7.30
2023-02-11T07:25:21.819Z,6.97
2023-02-11T07:27:50.510Z,7.22
2023-02-11T07:30:17.776Z,5.60
2023-02-11T07:32:44.985Z,5.80
2023-02-11T07:35:12.135Z,6.70
2023-02-11T07:37:39.273Z,7.45
2023-02-11T07:40:07.970Z,6.88
2023-02-11T07:42:35.890Z,8.45
2023-02-11T07:45:03.129Z,7.28
2023-02-11T07:47:30.228Z,7.03
2023-02-11T07:49:57.384Z,7.30
2023-02-11T07:52:24.507Z,7.45
2023-02-11T07:54:51.666Z,6.90
2023-02-11T07:57:18.830Z,6.55
2023-02-11T07:59:46.035Z,5.43
2023-02-11T08:02:13.286Z,6.18
2023-02-11T08:04:40.630Z,5.20
2023-02-11T08:07:07.816Z,7.03
2023-02-11T08:09:35.011Z,6.85
2023-02-11T08:12:02.419Z,7.47
2023-02-11T08:14:29.704Z,7.55
2023-02-11T08:16:56.883Z,7.38
2023-02-11T08:19:24.172Z,6.50
2023-02-11T08:21:51.478Z,7.13
2023-02-11T08:24:18.695Z,5.90
2023-02-11T08:26:46.039Z,5.05
2023-02-11T08:29:15.397Z,5.10
2023-02-11T08:31:45.285Z,7.18
2023-02-11T08:34:19.351Z,5.22
2023-02-11T08:36:48.362Z,6.82
2023-02-11T08:39:21.724Z,6.97
2023-02-11T08:41:52.014Z,6.28
2023-02-11T08:44:21.168Z,6.35
2023-02-11T08:46:49.772Z,4.60
2023-02-11T08:49:17.103Z,7.60
2023-02-11T08:51:45.687Z,8.10
2023-02-11T08:54:13.495Z,6.63
2023-02-11T08:56:40.753Z,7.28
2023-02-11T08:59:09.715Z,7.45
2023-02-11T09:01:37.117Z,7.25
2023-02-11T09:04:04.972Z,6.20
2023-02-11T09:06:32.413Z,7.25
2023-02-11T09:08:59.888Z,7.07
2023-02-11T09:11:35.921Z,6.72
2023-02-11T09:14:04.510Z,8.40
2023-02-11T09:16:34.580Z,7.13
2023-02-11T09:19:05.018Z,7.75
2023-02-11T09:21:32.355Z,7.57
2023-02-11T09:23:59.578Z,8.20
2023-02-11T09:26:30.044Z,7.10
2023-02-11T09:28:57.510Z,8.07
2023-02-11T09:31:27.143Z,6.60
2023-02-11T09:33:57.479Z,8.30
2023-02-11T09:36:27.269Z,8.93
2023-02-11T09:38:55.480Z,7.28
2023-02-11T09:41:44.224Z,8.43
2023-02-11T09:44:23.656Z,9.00
2023-02-11T09:46:57.467Z,9.07
2023-02-11T09:49:44.754Z,9.88
2023-02-11T09:53:05.284Z,7.80
2023-02-11T09:55:36.941Z,8.85
2023-02-11T09:58:12.039Z,8.60
2023-02-11T10:00:52.069Z,7.05
2023-02-11T10:03:48.591Z,8.95
2023-02-11T10:06:49.551Z,9.30
2023-02-11T10:09:25.689Z,9.65
2023-02-11T10:12:17.504Z,9.23
2023-02-11T10:15:23.092Z,9.25
2023-02-11T10:18:02.432Z,8.40
2023-02-11T10:20:35.458Z,9.45
2023-02-11T10:23:13.409Z,9.27
2023-02-11T10:25:45.557Z,9.77
2023-02-11T10:28:22.486Z,9.18
2023-02-11T10:31:00.554Z,9.27
2023-02-11T10:33:27.762Z,8.52
2023-02-11T10:35:54.979Z,8.82
2023-02-11T10:38:22.171Z,9.48
2023-02-11T10:40:49.788Z,8.70
2023-02-11T10:43:20.861Z,8.35
2023-02-11T10:45:51.232Z,9.88
2023-02-11T10:48:40.142Z,9.38
2023-02-11T10:51:29.753Z,9.20
2023-02-11T10:54:08.398Z,10.60
2023-02-11T10:56:38.350Z,11.35
2023-02-11T10:59:15.938Z,10.65
2023-02-11T11:01:51.279Z,10.93
2023-02-11T11:04:30.752Z,9.52
2023-02-11T11:07:28.720Z,9.77
2023-02-11T11:10:00.701Z,9.60
2023-02-11T11:12:48.150Z,11.10
2023-02-11T11:15:25.990Z,11.00
2023-02-11T11:18:23.487Z,10.55
2023-02-11T11:21:01.276Z,12.25
2023-02-11T11:23:30.855Z,10.10
2023-02-11T11:26:18.037Z,11.63
2023-02-11T11:29:08.822Z,10.65
2023-02-11T11:31:46.483Z,9.10
2023-02-11T11:34:27.904Z,9.77
2023-02-11T11:36:56.710Z,10.07
2023-02-11T11:39:34.475Z,10.80
2023-02-11T11:42:23.576Z,10.20
2023-02-11T11:45:01.248Z,9.90
2023-02-11T11:47:45.459Z,10.50
2023-02-11T11:50:40.289Z,10.77
2023-02-11T11:53:23.444Z,11.27
2023-02-11T11:56:01.103Z,10.65
2023-02-11T11:58:30.364Z,10.20
2023-02-11T12:01:18.804Z,10.07
2023-02-11T12:04:26.166Z,11.55
2023-02-11T12:07:03.856Z,9.13
2023-02-11T12:09:53.026Z,10.75
2023-02-11T12:12:34.685Z,9.88
2023-02-11T12:15:16.835Z,10.00
2023-02-11T12:17:54.993Z,10.25
2023-02-11T12:20:24.805Z,11.23
2023-02-11T12:23:19.945Z,10.55
2023-02-11T12:26:01.947Z,11.52
2023-02-11T12:28:41.877Z,8.15
2023-02-11T12:31:17.063Z,11.38
2023-02-11T12:34:12.185Z,10.55
2023-02-11T12:36:54.975Z,11.27
2023-02-11T12:45:06.511Z,9.32
2023-02-11T12:47:51.897Z,11.60
2023-02-11T12:50:40.608Z,10.43
2023-02-11T12:53:21.206Z,9.65
2023-02-11T12:55:52.878Z,10.30
2023-02-11T12:58:35.590Z,11.27
2023-02-11T13:01:20.558Z,10.02
2023-02-11T13:04:01.085Z,9.05
2023-02-11T13:06:45.338Z,10.50
2023-02-11T13:09:21.262Z,9.13
2023-02-11T13:11:56.289Z,9.18
2023-02-11T13:14:30.816Z,11.10
2023-02-11T13:16:58.853Z,9.57
2023-02-11T13:19:49.486Z,8.75
2023-02-11T13:22:35.143Z,9.25
2023-02-11T13:25:08.417Z,9.05
2023-02-11T13:27:59.099Z,10.18
2023-02-11T13:30:34.000Z,9.43
2023-02-11T13:33:01.231Z,10.07
2023-02-11T13:35:30.059Z,9.70
2023-02-11T13:38:17.899Z,9.55
2023-02-11T13:40:46.057Z,9.60
2023-02-11T13:43:25.782Z,9.13
2023-02-11T13:46:02.560Z,10.48
2023-02-11T13:48:31.389Z,10.23
2023-02-11T13:51:05.501Z,8.32
2023-02-11T13:53:47.310Z,8.90
2023-02-11T13:56:28.707Z,9.30
2023-02-11T13:58:55.910Z,9.57
2023-02-11T14:02:12.308Z,10.13
2023-02-11T14:05:22.759Z,10.05
2023-02-11T14:08:30.284Z,10.20
2023-02-11T14:11:08.795Z,9.82
2023-02-11T14:13:37.646Z,10.00
2023-02-11T14:16:36.465Z,11.13
2023-02-11T14:19:06.734Z,9.27
2023-02-11T14:21:42.034Z,10.43
2023-02-11T14:24:13.452Z,10.75
2023-02-11T14:27:02.329Z,9.77
2023-02-11T14:30:06.740Z,9.50
2023-02-11T14:32:49.832Z,10.52
2023-02-11T14:35:27.910Z,9.63
2023-02-11T14:38:02.790Z,10.40
2023-02-11T14:40:35.076Z,9.70
2023-02-11T14:43:15.696Z,8.82
2023-02-11T14:45:48.667Z,9.82
2023-02-11T14:48:18.510Z,10.90
2023-02-11T14:50:51.091Z,9.93
2023-02-11T14:53:25.935Z,9.63
2023-02-11T14:55:55.886Z,9.10
2023-02-11T14:58:28.526Z,9.45
2023-02-11T15:03:28.273Z,8.57
2023-02-11T15:06:08.729Z,10.20
2023-02-11T15:08:38.628Z,9.05
2023-02-11T15:11:12.708Z,9.65
2023-02-11T15:13:44.771Z,8.25
2023-02-11T15:16:15.804Z,8.82
2023-02-11T15:18:45.682Z,8.35
2023-02-11T15:21:13.229Z,9.00
2023-02-11T15:23:42.245Z,9.05
2023-02-11T15:26:21.929Z,8.68
2023-02-11T15:28:52.274Z,9.02
2023-02-11T15:31:23.681Z,9.70
2023-02-11T15:33:51.724Z,8.57
2023-02-11T15:36:22.099Z,6.43
2023-02-11T15:39:20.223Z,6.68
2023-02-11T15:41:47.348Z,6.72
2023-02-11T15:44:33.198Z,7.53
2023-02-11T15:47:00.627Z,5.95
2023-02-11T15:49:27.767Z,6.85
2023-02-11T15:51:57.534Z,5.55
2023-02-11T15:54:28.001Z,5.90
2023-02-11T15:57:02.276Z,5.15
2023-02-11T15:59:38.340Z,6.43
2023-02-11T16:02:17.138Z,6.85
2023-02-11T16:04:53.287Z,5.80
2023-02-11T16:07:40.893Z,6.80
2023-02-11T16:10:25.454Z,6.32
2023-02-11T16:13:08.751Z,6.35
2023-02-11T16:15:39.918Z,4.93
2023-02-11T16:18:38.440Z,6.80
2023-02-11T16:21:15.568Z,6.63
2023-02-11T16:23:44.088Z,7.00
2023-02-11T16:26:22.405Z,5.95
2023-02-11T16:28:50.446Z,7.00
2023-02-11T16:31:17.941Z,6.03
2023-02-11T16:33:45.392Z,6.13
2023-02-11T16:36:14.728Z,4.68
2023-02-11T16:38:41.900Z,4.55
2023-02-11T16:41:12.974Z,7.22
2023-02-11T16:43:40.693Z,7.35
2023-02-11T16:46:09.628Z,6.72
2023-02-11T16:48:38.422Z,7.50
2023-02-11T16:51:08.551Z,6.03
2023-02-11T16:53:35.728Z,7.03
2023-02-11T16:56:02.853Z,5.70
2023-02-11T16:58:30.209Z,5.20
2023-02-11T17:00:57.852Z,5.45
2023-02-11T17:03:29.943Z,5.18
2023-02-11T17:05:57.501Z,6.90
2023-02-11T17:08:24.809Z,7.07
2023-02-11T17:10:52.188Z,8.07
2023-02-11T17:13:19.635Z,7.65
2023-02-11T17:15:46.726Z,7.47
2023-02-11T17:18:14.792Z,7.00
2023-02-11T17:20:42.140Z,6.97
2023-02-11T17:23:09.798Z,7.57
2023-02-11T17:25:37.633Z,7.65
2023-02-11T17:28:09.554Z,7.00
2023-02-11T17:30:36.693Z,7.55
2023-02-11T17:33:03.912Z,7.50
2023-02-11T17:35:30.964Z,7.38
2023-02-11T17:37:59.284Z,7.00
2023-02-11T17:40:26.843Z,7.03
2023-02-11T17:42:53.953Z,7.45
2023-02-11T17:45:22.366Z,5.85
2023-02-11T17:47:50.007Z,6.47
2023-02-11T17:50:17.436Z,7.30
2023-02-11T17:52:44.827Z,6.18
2023-02-11T17:55:12.044Z,5.32
2023-02-11T17:57:39.335Z,4.20
2023-02-11T18:00:08.069Z,4.72
2023-02-11T18:02:40.036Z,7.75
2023-02-11T18:05:07.444Z,8.93
2023-02-11T18:07:34.709Z,9.35
2023-02-11T18:10:02.030Z,7.70
2023-02-11T18:12:29.595Z,8.48
2023-02-11T18:14:58.161Z,9.05
2023-02-11T18:17:26.329Z,9.00
2023-02-11T18:19:57.583Z,9.25
2023-02-11T18:22:25.086Z,7.78
2023-02-11T18:24:54.680Z,7.75
2023-02-11T18:27:23.165Z,8.82
2023-02-11T18:29:50.466Z,10.10
2023-02-11T18:32:17.668Z,8.80
2023-02-11T18:34:44.774Z,9.90
2023-02-11T18:37:13.673Z,9.43
2023-02-11T18:39:41.180Z,10.63
2023-02-11T18:42:08.721Z,10.00
2023-02-11T18:44:36.631Z,9.00
2023-02-11T18:47:04.815Z,10.23
2023-02-11T18:49:33.235Z,8.73
2023-02-11T18:52:00.392Z,8.98
2023-02-11T18:54:27.581Z,10.23
2023-02-11T18:56:54.692Z,10.48
2023-02-11T18:59:21.761Z,10.18
2023-02-11T19:01:49.024Z,9.07
2023-02-11T19:04:20.244Z,8.77
2023-02-11T19:06:49.785Z,7.57
2023-02-11T19:09:19.976Z,10.00
2023-02-11T19:11:47.554Z,8.10
2023-02-11T19:14:17.859Z,10.00
2023-02-11T19:16:50.781Z,10.27
2023-02-11T19:19:19.407Z,10.60
2023-02-11T19:21:47.836Z,9.68
2023-02-11T19:24:16.520Z,10.27
2023-02-11T19:26:43.680Z,9.68
2023-02-11T19:29:11.133Z,11.32
2023-02-11T19:31:39.229Z,10.23
2023-02-11T19:34:07.836Z,7.93
2023-02-11T19:36:35.279Z,8.38
2023-02-11T19:39:04.791Z,9.25
2023-02-11T19:41:33.880Z,8.95
2023-02-11T19:44:02.982Z,10.02
2023-02-11T19:46:33.878Z,10.15
2023-02-11T19:49:02.072Z,9.25
2023-02-11T19:51:30.439Z,10.48
2023-02-11T19:53:58.990Z,10.30
2023-02-11T19:56:28.871Z,9.13
2023-02-11T19:58:56.280Z,10.13
2023-02-11T20:01:25.058Z,9.82
2023-02-11T20:03:54.476Z,11.13
2023-02-11T20:06:28.333Z,10.48
2023-02-11T20:08:58.782Z,10.88
2023-02-11T20:11:28.368Z,11.35
2023-02-11T20:13:56.072Z,11.55
2023-02-11T20:16:36.834Z,10.13
2023-02-11T20:19:18.521Z,9.75
2023-02-11T20:21:47.857Z,11.43
2023-02-11T20:24:16.756Z,12.23
2023-02-11T20:26:45.658Z,10.00
2023-02-11T20:29:12.884Z,9.20
2023-02-11T20:31:40.144Z,11.18
2023-02-11T20:34:07.536Z,12.18
2023-02-11T20:36:37.798Z,11.00
2023-02-11T20:39:06.697Z,11.65
2023-02-11T20:41:36.735Z,12.60
2023-02-11T20:44:07.528Z,12.93
2023-02-11T20:46:38.556Z,11.90
2023-02-11T20:49:06.336Z,12.25
2023-02-11T20:51:35.316Z,11.60
2023-02-11T20:54:02.551Z,10.45
2023-02-11T20:56:32.677Z,9.80
2023-02-11T20:59:01.507Z,10.73
2023-02-11T21:01:49.950Z,11.50
2023-02-11T21:04:21.083Z,11.48
2023-02-11T21:06:52.533Z,11.27
2023-02-11T21:09:23.958Z,11.60
2023-02-11T21:11:52.884Z,12.45
2023-02-11T21:14:22.565Z,12.18
2023-02-11T21:16:50.650Z,11.48
2023-02-11T21:19:18.592Z,9.45
2023-02-11T21:21:45.885Z,12.63
2023-02-11T21:24:13.386Z,11.45
2023-02-11T21:26:40.525Z,13.05
2023-02-11T21:29:08.668Z,12.20
2023-02-11T21:31:37.131Z,12.60
2023-02-11T21:34:05.083Z,13.68
2023-02-11T21:36:32.290Z,12.93
2023-02-11T21:39:00.475Z,12.48
2023-02-11T21:41:27.982Z,11.35
2023-02-11T21:43:55.216Z,12.27
2023-02-11T21:46:23.103Z,12.25
2023-02-11T21:48:50.462Z,12.00
2023-02-11T21:51:23.724Z,14.30
2023-02-11T21:54:01.885Z,12.32
2023-02-11T21:56:31.206Z,12.68
2023-02-11T21:59:00.471Z,12.20
2023-02-11T22:01:35.612Z,11.25
2023-02-11T22:04:03.403Z,11.93
2023-02-11T22:06:33.532Z,12.82
2023-02-11T22:09:07.061Z,12.50
2023-02-11T22:11:34.265Z,11.18
2023-02-11T22:14:01.931Z,13.80
2023-02-11T22:16:30.383Z,11.88
2023-02-11T22:19:02.724Z,9.13
2023-02-11T22:21:30.301Z,13.65
2023-02-11T22:23:57.726Z,12.18
2023-02-11T22:26:26.622Z,12.60
2023-02-11T22:28:55.173Z,12.18
2023-02-11T22:31:28.292Z,11.50
2023-02-11T22:33:56.248Z,9.70
2023-02-11T22:36:38.583Z,9.70
2023-02-11T22:39:17.769Z,7.97
2023-02-11T22:41:46.508Z,11.27
2023-02-11T22:44:14.527Z,10.73
2023-02-11T22:46:41.710Z,12.30
2023-02-11T22:49:10.582Z,10.80
2023-02-11T22:51:39.194Z,9.60
2023-02-11T22:54:08.524Z,12.88
2023-02-11T22:56:35.959Z,13.00
2023-02-11T22:59:12.053Z,10.23
2023-02-11T23:01:39.586Z,11.70
2023-02-11T23:04:09.217Z,12.85
2023-02-11T23:06:36.468Z,12.73
2023-02-11T23:09:05.450Z,11.45
2023-02-11T23:11:33.066Z,12.48
2023-02-11T23:14:01.445Z,12.45
2023-02-11T23:16:34.297Z,13.07
2023-02-11T23:19:05.439Z,13.10
2023-02-11T23:21:34.755Z,11.45
2023-02-11T23:24:08.379Z,12.65
2023-02-11T23:26:41.488Z,12.70
2023-02-11T23:29:09.714Z,12.93
2023-02-11T23:31:40.629Z,12.98
2023-02-11T23:34:08.901Z,13.75
2023-02-11T23:36:36.233Z,11.05
2023-02-11T23:39:04.132Z,9.13
2023-02-11T23:41:31.279Z,11.77
2023-02-11T23:43:59.632Z,10.90
2023-02-11T23:46:27.856Z,10.70
2023-02-11T23:48:55.420Z,12.55
2023-02-11T23:51:23.959Z,14.40
2023-02-11T23:53:51.685Z,13.35
2023-02-11T23:56:21.770Z,12.48
2023-02-11T23:58:50.488Z,12.48
